Time;durP1;ratioP1;P1;durP2;ratioP2;P2;SDS_P1;SDS_P2;PMS_P1;PMS_P2;Temp;Humidity;BMP_temperature;BMP_pressure;BME280_temperature;BME280_humidity;BME280_pressure;Samples;Min_cycle;Max_cycle;Signal;HPM_P1;HPM_P2
2022/10/27 00:03:50;;;;;;;261.88;19.50;;;;;10.70;97188.00;;;;8298953;28;20224;-75
2022/10/27 00:07:53;;;;;;;149.80;16.95;;;;;10.60;97184.00;;;;8299035;28;20222;-74
2022/10/27 00:11:58;;;;;;;208.10;19.85;;;;;10.60;97180.00;;;;8299532;28;20697;-74
2022/10/27 00:16:32;;;;;;;305.33;21.83;;;;;10.50;97184.00;;;;8298225;28;20224;-74
2022/10/27 00:20:35;;;;;;;362.58;23.30;;;;;10.40;97182.00;;;;8298346;28;20289;-74
2022/10/27 00:25:09;;;;;;;289.70;22.15;;;;;10.30;97177.00;;;;8298887;28;20214;-74
2022/10/27 00:29:14;;;;;;;162.90;18.33;;;;;10.30;97187.00;;;;8298379;28;20221;-74
2022/10/27 00:33:17;;;;;;;238.00;20.88;;;;;10.40;97187.00;;;;8297734;28;20607;-74
2022/10/27 00:37:54;;;;;;;267.00;21.08;;;;;10.20;97189.00;;;;8298406;28;20269;-73
2022/10/27 00:41:57;;;;;;;396.30;25.45;;;;;10.20;97200.00;;;;8297436;28;20222;-73
2022/10/27 00:46:07;;;;;;;355.77;24.75;;;;;10.20;97194.00;;;;8297749;28;20229;-73
2022/10/27 00:50:35;;;;;;;264.63;19.48;;;;;10.00;97185.00;;;;8298226;28;20232;-73
2022/10/27 00:54:41;;;;;;;125.55;13.63;;;;;10.00;97190.00;;;;8297358;28;20214;-73
2022/10/27 00:58:45;;;;;;;91.93;12.75;;;;;10.00;97199.00;;;;8297379;28;20607;-72
2022/10/27 01:03:26;;;;;;;136.70;15.80;;;;;10.00;97202.00;;;;8296569;28;20269;-73
2022/10/27 01:07:30;;;;;;;101.88;11.75;;;;;10.00;97204.00;;;;8296622;28;20230;-74
2022/10/27 01:12:06;;;;;;;212.65;17.33;;;;;10.00;97202.00;;;;8297425;28;20224;-73
2022/10/27 01:16:21;;;;;;;224.73;17.88;;;;;10.00;97208.00;;;;8296067;28;20229;-73
2022/10/27 01:20:54;;;;;;;238.15;18.02;;;;;9.90;97205.00;;;;8296875;28;20220;-74
2022/10/27 01:30:05;;;;;;;65.38;12.48;;;;;9.90;97216.00;;;;8295843;28;20220;-74
2022/10/27 01:34:15;;;;;;;191.48;18.65;;;;;9.90;97215.00;;;;8296270;28;20227;-73
2022/10/27 01:38:24;;;;;;;58.15;11.57;;;;;9.90;97217.00;;;;8296722;28;20593;-73
2022/10/27 01:42:36;;;;;;;105.55;15.40;;;;;9.90;97208.00;;;;8295955;28;20221;-73
2022/10/27 01:46:40;;;;;;;48.78;10.98;;;;;9.90;97214.00;;;;8296548;28;20242;-73
2022/10/27 01:50:45;;;;;;;273.85;18.13;;;;;9.80;97208.00;;;;8295298;28;20690;-72
2022/10/27 01:55:03;;;;;;;335.08;20.38;;;;;9.70;97205.00;;;;8295614;28;20309;-72
2022/10/27 01:59:21;;;;;;;66.00;9.82;;;;;9.60;97216.00;;;;8295780;28;20218;-72
2022/10/27 02:03:29;;;;;;;27.80;8.85;;;;;9.60;97218.00;;;;8296180;28;20219;-72
2022/10/27 02:08:05;;;;;;;21.77;8.60;;;;;9.50;97213.00;;;;8290634;28;20229;-72
2022/10/27 02:12:18;;;;;;;177.90;16.92;;;;;9.50;97218.00;;;;8295412;28;20219;-72
2022/10/27 02:16:28;;;;;;;286.30;21.92;;;;;9.50;97218.00;;;;8295272;28;20230;-72
2022/10/27 02:21:03;;;;;;;95.55;13.20;;;;;9.50;97224.00;;;;8296165;28;20230;-73
2022/10/27 02:25:09;;;;;;;225.55;15.73;;;;;9.40;97233.00;;;;8295434;28;20225;-72
2022/10/27 02:29:16;;;;;;;534.80;28.60;;;;;9.40;97226.00;;;;8301999;28;20668;-72
2022/10/27 02:33:50;;;;;;;29.75;8.88;;;;;9.40;97227.00;;;;8306309;28;20232;-72
2022/10/27 02:37:53;;;;;;;117.35;13.00;;;;;9.50;97233.00;;;;8306069;28;20222;-72
2022/10/27 02:41:57;;;;;;;98.32;13.68;;;;;9.50;97227.00;;;;8305549;28;20226;-72
2022/10/27 02:46:31;;;;;;;71.07;11.85;;;;;9.50;97228.00;;;;8306465;28;20221;-72
2022/10/27 02:50:34;;;;;;;123.95;14.80;;;;;9.50;97225.00;;;;8299801;28;20655;-72
2022/10/27 02:54:37;;;;;;;185.47;17.73;;;;;9.40;97228.00;;;;8305510;28;20611;-72
2022/10/27 02:59:16;;;;;;;319.35;22.83;;;;;9.30;97224.00;;;;8304417;28;20256;-72
2022/10/27 03:03:19;;;;;;;121.28;15.15;;;;;9.30;97221.00;;;;8303882;28;20221;-72
2022/10/27 03:07:56;;;;;;;186.93;18.38;;;;;9.30;97222.00;;;;8305836;28;20237;-72
2022/10/27 03:11:59;;;;;;;340.35;22.63;;;;;9.30;97221.00;;;;8304153;28;20636;-72
2022/10/27 03:16:03;;;;;;;291.60;23.02;;;;;9.30;97212.00;;;;8304545;28;20230;-73
2022/10/27 03:20:37;;;;;;;184.32;18.00;;;;;9.30;97221.00;;;;8304777;28;20213;-72
2022/10/27 03:24:40;;;;;;;88.32;15.10;;;;;9.40;97223.00;;;;8305333;28;20222;-73
2022/10/27 03:28:51;;;;;;;57.70;12.27;;;;;9.50;97228.00;;;;8305250;28;20230;-72
2022/10/27 03:32:55;;;;;;;119.13;16.45;;;;;9.60;97221.00;;;;8305143;28;20229;-73
2022/10/27 03:36:58;;;;;;;181.05;19.65;;;;;9.60;97217.00;;;;8305612;28;20688;-72
2022/10/27 03:41:42;;;;;;;449.45;30.55;;;;;9.70;97230.00;;;;8299791;28;20220;-73
2022/10/27 03:45:48;;;;;;;399.45;27.33;;;;;9.80;97228.00;;;;8299458;28;20232;-73
2022/10/27 03:49:53;;;;;;;393.60;26.63;;;;;9.80;97227.00;;;;8300385;28;20230;-76
2022/10/27 03:53:56;;;;;;;413.23;29.00;;;;;9.90;97233.00;;;;8351454;28;20306;-75
2022/10/27 03:58:30;;;;;;;476.20;30.65;;;;;9.90;97228.00;;;;8336672;28;20570;-76
2022/10/27 04:08:06;;;;;;;179.05;18.80;;;;;10.10;97239.00;;;;8328477;28;20229;-72
2022/10/27 04:12:47;;;;;;;109.35;15.93;;;;;10.10;97238.00;;;;8300015;28;20222;-75
2022/10/27 04:16:50;;;;;;;227.75;21.15;;;;;10.30;97244.00;;;;8297825;28;20648;-73
2022/10/27 04:21:28;;;;;;;67.43;13.73;;;;;10.30;97252.00;;;;8294669;28;20217;-73
2022/10/27 04:26:06;;;;;;;165.00;19.55;;;;;10.30;97243.00;;;;8290496;28;20305;-72
2022/10/27 04:30:40;;;;;;;192.80;21.58;;;;;10.40;97257.00;;;;8298837;28;20555;-72
2022/10/27 04:35:17;;;;;;;364.30;26.95;;;;;10.50;97247.00;;;;8297860;28;20221;-72
2022/10/27 04:39:54;;;;;;;151.25;19.67;;;;;10.50;97245.00;;;;8298287;28;20221;-72
2022/10/27 04:43:59;;;;;;;112.93;16.85;;;;;10.60;97254.00;;;;8329377;28;20250;-71
2022/10/27 04:48:32;;;;;;;150.38;20.08;;;;;10.70;97241.00;;;;8330811;28;20221;-71
2022/10/27 04:53:09;;;;;;;197.77;21.35;;;;;10.70;97258.00;;;;8331837;28;20218;-71
2022/10/27 04:57:12;;;;;;;194.23;21.88;;;;;10.80;97257.00;;;;8297760;28;20624;-71
2022/10/27 05:01:17;;;;;;;239.57;24.30;;;;;11.00;97253.00;;;;8297276;28;20224;-71
2022/10/27 05:05:20;;;;;;;189.60;21.52;;;;;11.00;97258.00;;;;8298311;28;20651;-71
2022/10/27 05:09:23;;;;;;;182.40;21.27;;;;;11.10;97246.00;;;;8297243;28;20253;-71
2022/10/27 05:13:26;;;;;;;181.35;21.15;;;;;11.10;97252.00;;;;8297755;28;20226;-71
2022/10/27 05:18:04;;;;;;;214.50;22.13;;;;;11.10;97261.00;;;;8296387;28;20230;-71
2022/10/27 05:22:12;;;;;;;224.77;24.70;;;;;11.10;97253.00;;;;8297405;28;20238;-71
2022/10/27 05:26:15;;;;;;;148.90;19.35;;;;;11.20;97266.00;;;;8297043;28;20685;-71
2022/10/27 05:30:18;;;;;;;146.80;22.05;;;;;11.20;97262.00;;;;8296791;28;20266;-71
2022/10/27 05:34:22;;;;;;;187.57;22.80;;;;;11.30;97268.00;;;;8296963;28;20234;-71
2022/10/27 05:38:25;;;;;;;367.27;31.10;;;;;11.30;97262.00;;;;8296154;28;20263;-71
2022/10/27 05:42:28;;;;;;;318.58;28.27;;;;;11.30;97261.00;;;;8297020;28;20233;-71
2022/10/27 05:46:31;;;;;;;275.52;27.27;;;;;11.30;97274.00;;;;8295639;28;20225;-71
2022/10/27 05:50:36;;;;;;;299.95;32.13;;;;;11.40;97265.00;;;;8295958;28;20229;-71
2022/10/27 05:54:39;;;;;;;466.48;38.75;;;;;11.50;97278.00;;;;8295730;28;20317;-71
2022/10/27 05:58:42;;;;;;;272.63;33.63;;;;;11.70;97274.00;;;;8319044;28;20228;-70
2022/10/27 06:02:45;;;;;;;143.73;25.67;;;;;11.90;97287.00;;;;8328272;28;20670;-70
2022/10/27 06:06:50;;;;;;;415.98;38.60;;;;;12.00;97289.00;;;;8327727;28;20220;-70
2022/10/27 06:10:53;;;;;;;443.98;40.60;;;;;12.10;97292.00;;;;8327799;28;20626;-71
2022/10/27 06:14:56;;;;;;;447.50;38.63;;;;;12.20;97291.00;;;;8328365;28;20536;-70
2022/10/27 06:18:59;;;;;;;127.32;21.50;;;;;12.30;97298.00;;;;8328147;28;20220;-70
2022/10/27 06:23:04;;;;;;;291.85;30.80;;;;;12.30;97294.00;;;;8327695;28;20220;-71
2022/10/27 06:27:07;;;;;;;559.92;43.70;;;;;12.30;97305.00;;;;8327712;28;20539;-71
2022/10/27 06:31:44;;;;;;;436.20;36.90;;;;;12.40;97291.00;;;;8327463;28;20224;-71
2022/10/27 06:35:47;;;;;;;378.80;34.70;;;;;12.60;97298.00;;;;8327346;28;20235;-71
2022/10/27 06:39:54;;;;;;;469.83;38.53;;;;;12.70;97305.00;;;;8327580;28;20232;-70
2022/10/27 06:43:57;;;;;;;513.85;40.15;;;;;12.80;97311.00;;;;8327918;28;20559;-69
2022/10/27 06:48:33;;;;;;;251.95;29.13;;;;;12.90;97327.00;;;;8326727;28;20221;-70
2022/10/27 06:52:37;;;;;;;344.52;32.88;;;;;13.00;97324.00;;;;8330757;28;20274;-70
2022/10/27 06:56:41;;;;;;;374.45;36.42;;;;;13.10;97328.00;;;;8326921;28;20351;-70
2022/10/27 07:00:44;;;;;;;405.67;38.60;;;;;13.20;97335.00;;;;8326754;28;20690;-70
2022/10/27 07:04:47;;;;;;;281.02;35.45;;;;;13.30;97339.00;;;;8327400;28;20228;-70
2022/10/27 07:08:51;;;;;;;257.92;35.10;;;;;13.40;97330.00;;;;8327617;28;20227;-70
2022/10/27 07:12:57;;;;;;;167.23;27.98;;;;;13.50;97344.00;;;;8326449;28;20228;-70
2022/10/27 07:17:00;;;;;;;314.00;36.30;;;;;13.50;97351.00;;;;8331686;28;20312;-70
2022/10/27 07:21:04;;;;;;;350.48;36.58;;;;;13.60;97358.00;;;;8332781;28;20224;-71
2022/10/27 07:25:08;;;;;;;212.68;32.38;;;;;13.70;97358.00;;;;8332610;28;20217;-70
2022/10/27 07:29:13;;;;;;;457.55;42.22;;;;;13.80;97361.00;;;;8332703;28;20224;-70
2022/10/27 07:33:16;;;;;;;214.07;28.02;;;;;13.90;97367.00;;;;8333042;28;20221;-70
2022/10/27 07:37:19;;;;;;;221.55;28.85;;;;;13.90;97363.00;;;;8332807;28;20240;-70
2022/10/27 07:41:22;;;;;;;219.20;30.65;;;;;14.00;97354.00;;;;8333386;28;20278;-70
2022/10/27 07:46:00;;;;;;;516.85;47.88;;;;;14.00;97355.00;;;;8332398;28;20528;-70
2022/10/27 07:50:04;;;;;;;323.65;38.85;;;;;14.20;97357.00;;;;8365034;28;20648;-70
2022/10/27 07:54:07;;;;;;;346.65;35.80;;;;;14.30;97374.00;;;;8365153;28;20223;-71
2022/10/27 07:58:44;;;;;;;269.38;29.92;;;;;14.40;97374.00;;;;8365034;28;20224;-71
2022/10/27 08:02:49;;;;;;;218.90;29.40;;;;;14.60;97374.00;;;;8331626;28;20287;-71
2022/10/27 08:06:52;;;;;;;211.63;31.15;;;;;14.80;97376.00;;;;8332069;28;20697;-71
2022/10/27 08:10:55;;;;;;;295.02;35.28;;;;;14.80;97377.00;;;;8331534;28;20571;-71
2022/10/27 08:15:32;;;;;;;477.52;46.63;;;;;15.00;97374.00;;;;8332217;28;20270;-71
2022/10/27 08:19:37;;;;;;;596.92;51.50;;;;;15.20;97369.00;;;;8335088;28;20220;-72
2022/10/27 08:23:40;;;;;;;231.27;29.55;;;;;15.40;97371.00;;;;8331749;28;20221;-72
2022/10/27 08:28:14;;;;;;;230.45;31.42;;;;;15.40;97381.00;;;;8330327;28;20617;-71
2022/10/27 08:32:17;;;;;;;314.00;34.85;;;;;15.40;97383.00;;;;8331597;28;20218;-72
2022/10/27 08:36:56;;;;;;;305.38;35.50;;;;;15.30;97384.00;;;;8330800;28;20306;-72
2022/10/27 08:41:10;;;;;;;207.77;29.00;;;;;15.30;97378.00;;;;8363498;28;20528;-72
2022/10/27 08:45:17;;;;;;;308.27;36.95;;;;;15.30;97386.00;;;;8334179;28;20213;-72
2022/10/27 08:49:33;;;;;;;222.48;30.95;;;;;15.40;97378.00;;;;8331189;28;20226;-72
2022/10/27 08:54:04;;;;;;;104.00;23.85;;;;;15.30;97375.00;;;;8330644;28;20643;-72
2022/10/27 08:58:16;;;;;;;138.82;24.83;;;;;15.40;97375.00;;;;8362697;28;20225;-73
2022/10/27 09:02:46;;;;;;;92.43;22.95;;;;;15.50;97378.00;;;;8362689;28;20232;-72
2022/10/27 09:06:59;;;;;;;201.40;29.40;;;;;15.60;97373.00;;;;8332643;28;20320;-71
2022/10/27 09:11:29;;;;;;;109.25;24.48;;;;;15.70;97373.00;;;;8329594;28;20221;-71
2022/10/27 09:15:40;;;;;;;202.95;27.38;;;;;15.80;97378.00;;;;8362493;28;20225;-71
2022/10/27 09:19:48;;;;;;;133.05;26.20;;;;;16.00;97371.00;;;;8332362;28;20225;-71
2022/10/27 09:24:18;;;;;;;124.10;27.75;;;;;16.20;97382.00;;;;8329650;28;20224;-71
2022/10/27 09:28:28;;;;;;;107.78;26.00;;;;;16.30;97377.00;;;;8361661;28;20224;-71
2022/10/27 09:32:36;;;;;;;79.57;23.90;;;;;16.50;97372.00;;;;8362192;28;20217;-71
2022/10/27 09:37:10;;;;;;;67.22;25.10;;;;;16.70;97367.00;;;;8361944;28;20212;-71
2022/10/27 09:41:13;;;;;;;52.55;21.98;;;;;16.90;97365.00;;;;8329272;28;20570;-71
2022/10/27 09:45:19;;;;;;;73.07;22.67;;;;;17.00;97371.00;;;;8328467;28;20692;-72
2022/10/27 09:49:31;;;;;;;45.70;19.98;;;;;17.00;97373.00;;;;8329114;28;20563;-71
2022/10/27 09:54:02;;;;;;;46.30;20.85;;;;;17.30;97381.00;;;;8328760;28;20217;-71
2022/10/27 09:58:05;;;;;;;42.35;17.85;;;;;17.60;97380.00;;;;8328519;28;20229;-71
2022/10/27 10:02:24;;;;;;;40.42;19.35;;;;;17.60;97381.00;;;;8327785;28;20217;-71
2022/10/27 10:06:51;;;;;;;40.92;17.83;;;;;17.70;97376.00;;;;8328286;28;20225;-72
2022/10/27 10:10:57;;;;;;;37.83;18.20;;;;;17.70;97368.00;;;;8361609;28;20216;-71
2022/10/27 10:15:18;;;;;;;39.38;18.30;;;;;17.90;97368.00;;;;8362016;28;20693;-71
2022/10/27 10:19:23;;;;;;;34.08;15.27;;;;;18.10;97370.00;;;;8330583;28;20224;-72
2022/10/27 10:23:58;;;;;;;29.95;16.92;;;;;18.10;97372.00;;;;8328715;28;20221;-71
2022/10/27 10:28:04;;;;;;;27.02;15.65;;;;;18.20;97369.00;;;;8360911;28;20216;-71
2022/10/27 10:32:10;;;;;;;23.58;14.63;;;;;18.30;97369.00;;;;8361305;28;20217;-71
2022/10/27 10:36:19;;;;;;;25.23;16.15;;;;;18.20;97362.00;;;;8360998;28;20213;-72
2022/10/27 10:40:28;;;;;;;23.70;14.55;;;;;18.30;97357.00;;;;8361401;28;20235;-71
2022/10/27 10:44:32;;;;;;;24.90;14.68;;;;;18.20;97363.00;;;;8361210;28;20233;-71
2022/10/27 10:48:40;;;;;;;22.73;14.90;;;;;18.20;97365.00;;;;8361898;28;20216;-71
2022/10/27 10:53:19;;;;;;;25.17;15.40;;;;;18.40;97371.00;;;;8333945;28;20651;-71
2022/10/27 10:57:29;;;;;;;28.17;14.57;;;;;18.30;97375.00;;;;8334386;28;20237;-71
2022/10/27 11:01:41;;;;;;;25.23;14.25;;;;;18.20;97361.00;;;;8333390;28;20213;-73
2022/10/27 11:06:16;;;;;;;25.92;13.85;;;;;18.00;97346.00;;;;8334114;28;20237;-71
2022/10/27 11:10:23;;;;;;;27.30;12.70;;;;;17.80;97353.00;;;;8333462;28;20220;-71
2022/10/27 11:14:29;;;;;;;22.45;12.30;;;;;17.70;97346.00;;;;8333940;28;20229;-71
2022/10/27 11:19:05;;;;;;;20.33;11.20;;;;;17.60;97339.00;;;;8333469;28;20283;-71
2022/10/27 11:23:16;;;;;;;17.52;11.05;;;;;17.90;97339.00;;;;8334019;28;20217;-71
2022/10/27 11:27:24;;;;;;;15.27;9.50;;;;;18.40;97327.00;;;;8333358;28;20222;-71
2022/10/27 11:31:36;;;;;;;13.65;9.57;;;;;18.90;97329.00;;;;8333321;28;20226;-71
2022/10/27 11:36:08;;;;;;;20.40;9.18;;;;;19.10;97329.00;;;;8332626;28;20224;-71
2022/10/27 11:40:18;;;;;;;14.38;8.25;;;;;19.30;97324.00;;;;8333222;28;20605;-71
2022/10/27 11:44:31;;;;;;;14.60;8.13;;;;;19.20;97321.00;;;;8332938;28;20217;-72
2022/10/27 11:48:40;;;;;;;11.30;6.63;;;;;18.90;97312.00;;;;8332977;28;20237;-71
2022/10/27 11:52:47;;;;;;;7.50;5.90;;;;;18.70;97307.00;;;;8332477;28;20260;-71
2022/10/27 11:57:00;;;;;;;9.52;5.95;;;;;18.70;97315.00;;;;8332486;28;20229;-72
2022/10/27 12:01:38;;;;;;;10.95;6.18;;;;;18.70;97308.00;;;;8331016;28;20224;-71
2022/10/27 12:05:47;;;;;;;11.48;6.18;;;;;18.80;97307.00;;;;8332779;28;20262;-71
2022/10/27 12:10:05;;;;;;;10.73;5.28;;;;;18.80;97306.00;;;;8331540;28;20709;-71
2022/10/27 12:14:16;;;;;;;9.93;5.38;;;;;18.90;97303.00;;;;8331703;28;20233;-72
2022/10/27 12:18:27;;;;;;;7.88;4.95;;;;;18.90;97309.00;;;;8331560;28;20221;-72
2022/10/27 12:23:00;;;;;;;9.82;5.22;;;;;18.90;97306.00;;;;8331662;28;20222;-72
2022/10/27 12:27:11;;;;;;;16.27;5.20;;;;;19.10;97302.00;;;;8331151;28;20324;-72
2022/10/27 12:31:20;;;;;;;8.73;4.82;;;;;19.10;97302.00;;;;8332223;28;20252;-72
2022/10/27 12:35:28;;;;;;;11.65;4.93;;;;;19.10;97304.00;;;;8331205;28;20287;-72
2022/10/27 12:40:04;;;;;;;9.77;4.80;;;;;19.10;97300.00;;;;8330790;28;20571;-72
2022/10/27 12:44:19;;;;;;;7.75;4.72;;;;;19.20;97299.00;;;;8331192;28;20217;-72
2022/10/27 12:48:32;;;;;;;11.93;5.00;;;;;19.30;97299.00;;;;8330396;28;20236;-72
2022/10/27 12:52:43;;;;;;;8.57;4.72;;;;;19.30;97293.00;;;;8331356;28;20544;-72
2022/10/27 12:57:21;;;;;;;6.43;4.10;;;;;19.30;97284.00;;;;8330251;28;20217;-72
2022/10/27 13:01:34;;;;;;;11.40;4.93;;;;;19.40;97281.00;;;;8330681;28;20275;-72
2022/10/27 13:05:54;;;;;;;9.38;4.30;;;;;19.60;97281.00;;;;8329903;28;20236;-72
2022/10/27 13:10:14;;;;;;;7.53;4.32;;;;;19.70;97279.00;;;;8330589;28;20316;-72
2022/10/27 13:14:39;;;;;;;11.95;4.47;;;;;19.70;97272.00;;;;8329823;28;20221;-72
2022/10/27 13:18:55;;;;;;;9.00;4.15;;;;;19.80;97274.00;;;;8330131;28;20222;-72
2022/10/27 13:23:04;;;;;;;6.32;4.15;;;;;19.90;97271.00;;;;8329339;28;20240;-72
2022/10/27 13:27:12;;;;;;;7.53;3.90;;;;;19.90;97271.00;;;;8330224;28;20229;-72
2022/10/27 13:31:45;;;;;;;9.82;4.00;;;;;19.90;97269.00;;;;8329590;28;20217;-72
2022/10/27 13:36:19;;;;;;;9.68;4.45;;;;;20.00;97261.00;;;;8329422;28;20698;-72
2022/10/27 13:40:38;;;;;;;10.38;3.70;;;;;20.00;97266.00;;;;8329107;28;20229;-72
2022/10/27 13:44:41;;;;;;;5.35;3.60;;;;;20.10;97270.00;;;;8327837;28;20221;-72
2022/10/27 13:49:30;;;;;;;5.15;3.35;;;;;20.00;97264.00;;;;8328759;28;20232;-72
2022/10/27 13:53:35;;;;;;;10.20;4.03;;;;;20.00;97257.00;;;;8360680;28;20220;-72
2022/10/27 13:58:00;;;;;;;7.63;3.97;;;;;20.00;97262.00;;;;8361246;28;20229;-72
2022/10/27 14:02:23;;;;;;;7.72;3.80;;;;;20.00;97255.00;;;;8330391;28;20235;-72
2022/10/27 14:06:31;;;;;;;9.77;3.60;;;;;20.00;97247.00;;;;8328869;28;20221;-72
2022/10/27 14:10:39;;;;;;;6.72;4.05;;;;;20.00;97253.00;;;;8329232;28;20229;-72
2022/10/27 14:14:42;;;;;;;14.35;4.60;;;;;20.00;97252.00;;;;8328466;28;20224;-72
2022/10/27 14:19:19;;;;;;;8.18;4.63;;;;;20.00;97248.00;;;;8328692;28;20225;-72
2022/10/27 14:23:22;;;;;;;9.75;4.03;;;;;20.00;97257.00;;;;8327770;28;20221;-72
2022/10/27 14:27:27;;;;;;;11.45;4.75;;;;;20.00;97249.00;;;;8328430;28;20251;-72
2022/10/27 14:31:32;;;;;;;9.98;4.78;;;;;19.90;97252.00;;;;8328396;28;20220;-72
2022/10/27 14:35:35;;;;;;;7.32;4.40;;;;;19.90;97248.00;;;;8328272;28;20651;-72
2022/10/27 14:40:15;;;;;;;9.02;4.47;;;;;19.90;97243.00;;;;8327798;28;20232;-72
2022/10/27 14:44:23;;;;;;;8.35;5.10;;;;;19.80;97245.00;;;;8325825;28;20224;-72
2022/10/27 14:48:29;;;;;;;9.02;4.80;;;;;19.90;97246.00;;;;8327861;28;20551;-73
2022/10/27 14:53:06;;;;;;;13.63;5.07;;;;;19.80;97241.00;;;;8315466;28;20286;-72
2022/10/27 14:57:44;;;;;;;11.98;5.05;;;;;19.70;97238.00;;;;8320190;28;20213;-72
2022/10/27 15:01:49;;;;;;;9.75;4.90;;;;;19.60;97242.00;;;;8324144;28;20213;-72
2022/10/27 15:06:33;;;;;;;9.50;4.65;;;;;19.50;97241.00;;;;8326634;28;20217;-73
2022/10/27 15:10:38;;;;;;;12.20;5.07;;;;;19.50;97244.00;;;;8327634;28;20221;-72
2022/10/27 15:15:15;;;;;;;10.35;5.05;;;;;19.40;97228.00;;;;8327299;28;20634;-72
2022/10/27 15:19:19;;;;;;;11.23;4.63;;;;;19.30;97231.00;;;;8326398;28;20229;-72
2022/10/27 15:23:53;;;;;;;12.07;4.93;;;;;19.20;97233.00;;;;8327010;28;20248;-72
2022/10/27 15:27:59;;;;;;;9.20;5.13;;;;;19.10;97226.00;;;;8326483;28;20643;-72
2022/10/27 15:32:37;;;;;;;10.88;5.53;;;;;19.00;97222.00;;;;8327115;28;20678;-72
2022/10/27 15:36:42;;;;;;;13.25;7.28;;;;;18.90;97223.00;;;;8328545;28;20245;-72
2022/10/27 15:41:18;;;;;;;19.55;7.20;;;;;18.70;97220.00;;;;8333031;28;20229;-72
2022/10/27 15:45:36;;;;;;;13.52;6.97;;;;;18.60;97222.00;;;;8331913;28;20678;-72
2022/10/27 15:49:41;;;;;;;11.13;6.15;;;;;18.30;97223.00;;;;8332550;28;20221;-72
2022/10/27 15:53:48;;;;;;;14.15;5.63;;;;;18.00;97212.00;;;;8331936;28;20229;-72
2022/10/27 15:57:51;;;;;;;14.93;6.53;;;;;17.70;97227.00;;;;8331875;28;20221;-72
2022/10/27 16:02:34;;;;;;;10.70;5.82;;;;;17.30;97228.00;;;;8330852;28;20229;-72
2022/10/27 16:06:37;;;;;;;9.98;5.47;;;;;17.00;97223.00;;;;8331841;28;20225;-72
2022/10/27 16:11:17;;;;;;;10.15;6.07;;;;;16.60;97228.00;;;;8331563;28;20221;-72
2022/10/27 16:15:22;;;;;;;19.45;7.25;;;;;16.30;97227.00;;;;8328997;28;20232;-71
2022/10/27 16:19:25;;;;;;;19.15;8.38;;;;;16.00;97226.00;;;;8331850;28;20276;-73
2022/10/27 16:24:02;;;;;;;22.52;7.72;;;;;15.70;97233.00;;;;8330996;28;20232;-73
2022/10/27 16:28:16;;;;;;;17.88;8.20;;;;;15.40;97226.00;;;;8364175;28;20221;-73
2022/10/27 16:32:41;;;;;;;23.02;9.15;;;;;15.20;97223.00;;;;8364761;28;20873;-72
2022/10/27 16:36:44;;;;;;;28.90;10.85;;;;;14.90;97219.00;;;;8330644;28;20213;-73
2022/10/27 16:41:24;;;;;;;21.92;11.05;;;;;14.80;97218.00;;;;8330860;28;20249;-73
2022/10/27 16:46:00;;;;;;;23.35;11.02;;;;;14.60;97218.00;;;;8330989;28;20265;-72
2022/10/27 16:50:03;;;;;;;36.28;12.77;;;;;14.40;97212.00;;;;8333492;28;20568;-72
2022/10/27 16:54:40;;;;;;;35.60;13.30;;;;;14.20;97214.00;;;;8331022;28;20270;-73
2022/10/27 16:58:44;;;;;;;33.28;15.35;;;;;14.10;97208.00;;;;8330284;28;20222;-73
2022/10/27 17:02:50;;;;;;;43.97;16.45;;;;;14.00;97219.00;;;;8330295;28;20232;-73
2022/10/27 17:07:17;;;;;;;40.97;16.45;;;;;13.90;97229.00;;;;8322363;28;20221;-73
2022/10/27 17:11:54;;;;;;;61.30;20.73;;;;;13.80;97227.00;;;;8330717;28;20216;-72
2022/10/27 17:16:31;;;;;;;51.58;17.08;;;;;13.80;97226.00;;;;8328880;28;20264;-72
2022/10/27 17:21:09;;;;;;;36.10;14.27;;;;;13.60;97221.00;;;;8333114;28;20225;-72
2022/10/27 17:25:43;;;;;;;35.55;15.75;;;;;13.70;97227.00;;;;8329407;28;20217;-72
2022/10/27 17:29:46;;;;;;;32.47;14.25;;;;;13.70;97221.00;;;;8330762;28;20226;-72
2022/10/27 17:34:20;;;;;;;33.03;14.38;;;;;13.70;97222.00;;;;8329025;28;20223;-73
2022/10/27 17:38:59;;;;;;;28.77;14.15;;;;;13.50;97229.00;;;;8329583;28;20229;-72
2022/10/27 17:43:33;;;;;;;31.98;15.00;;;;;13.50;97236.00;;;;8329301;28;20252;-72
2022/10/27 17:47:42;;;;;;;36.40;16.25;;;;;13.50;97229.00;;;;8331580;28;20216;-74
2022/10/27 17:52:13;;;;;;;27.77;14.20;;;;;13.50;97240.00;;;;8329288;28;20602;-72
2022/10/27 17:56:51;;;;;;;34.85;16.20;;;;;13.50;97239.00;;;;8328523;28;20225;-72
2022/10/27 18:01:26;;;;;;;34.80;14.60;;;;;13.40;97245.00;;;;8328578;28;20224;-76
2022/10/27 18:05:31;;;;;;;32.83;14.10;;;;;13.40;97248.00;;;;8360553;28;20247;-75
2022/10/27 18:10:05;;;;;;;26.73;13.32;;;;;13.20;97246.00;;;;8362036;28;20217;-75
2022/10/27 18:14:43;;;;;;;30.92;14.02;;;;;13.20;97242.00;;;;8360449;28;20546;-75
2022/10/27 18:18:49;;;;;;;29.88;13.00;;;;;13.10;97235.00;;;;8360935;28;20221;-75
2022/10/27 18:23:23;;;;;;;25.60;12.55;;;;;13.10;97237.00;;;;8359636;28;20228;-75
2022/10/27 18:28:00;;;;;;;39.50;15.55;;;;;13.00;97240.00;;;;8359986;28;20564;-76
2022/10/27 18:32:04;;;;;;;34.10;13.55;;;;;13.10;97238.00;;;;8359187;28;20212;-75
2022/10/27 18:36:10;;;;;;;35.95;17.25;;;;;13.00;97243.00;;;;8360112;28;20220;-74
2022/10/27 18:40:13;;;;;;;34.10;14.43;;;;;13.00;97242.00;;;;8358511;28;20228;-74
2022/10/27 18:44:47;;;;;;;39.70;14.55;;;;;12.90;97231.00;;;;8360476;28;20274;-75
2022/10/27 18:48:53;;;;;;;37.58;14.27;;;;;12.90;97246.00;;;;8359977;28;20232;-75
2022/10/27 18:53:27;;;;;;;28.67;12.57;;;;;12.80;97237.00;;;;8360704;28;20652;-75
2022/10/27 18:57:36;;;;;;;39.00;15.05;;;;;12.90;97240.00;;;;8361025;28;20278;-75
2022/10/27 19:02:06;;;;;;;24.67;12.48;;;;;12.90;97243.00;;;;8327567;28;20224;-75
2022/10/27 19:06:17;;;;;;;34.70;13.18;;;;;12.80;97237.00;;;;8330359;28;20217;-75
2022/10/27 19:10:52;;;;;;;29.48;12.60;;;;;12.90;97238.00;;;;8326223;28;20659;-75
2022/10/27 19:15:29;;;;;;;32.95;12.80;;;;;12.80;97243.00;;;;8328722;28;20228;-75
2022/10/27 19:20:06;;;;;;;40.45;12.98;;;;;12.80;97233.00;;;;8365411;28;20590;-75
2022/10/27 19:24:44;;;;;;;33.42;12.07;;;;;12.70;97241.00;;;;8365874;28;20689;-76
2022/10/27 19:28:48;;;;;;;34.88;12.75;;;;;12.60;97244.00;;;;8366117;28;20661;-77
2022/10/27 19:32:52;;;;;;;36.70;15.77;;;;;12.60;97243.00;;;;8365601;28;20225;-76
2022/10/27 19:36:55;;;;;;;34.47;12.23;;;;;12.60;97246.00;;;;8365998;28;20600;-74
2022/10/27 19:41:35;;;;;;;30.95;13.07;;;;;12.50;97235.00;;;;8365263;28;20225;-74
2022/10/27 19:45:38;;;;;;;32.67;12.90;;;;;12.50;97244.00;;;;8332852;28;20221;-75
2022/10/27 19:50:15;;;;;;;38.70;14.82;;;;;12.40;97245.00;;;;8332766;28;20224;-76
2022/10/27 19:54:20;;;;;;;96.38;17.20;;;;;12.50;97241.00;;;;8334532;28;20221;-75
2022/10/27 19:58:24;;;;;;;31.55;12.38;;;;;12.40;97245.00;;;;8331715;28;20247;-75
2022/10/27 20:02:58;;;;;;;46.20;14.15;;;;;12.30;97241.00;;;;8332664;28;20554;-75
2022/10/27 20:07:35;;;;;;;63.10;16.00;;;;;12.20;97240.00;;;;8331861;28;20217;-74
2022/10/27 20:11:39;;;;;;;45.33;12.35;;;;;12.20;97241.00;;;;8364350;28;20217;-75
2022/10/27 20:15:43;;;;;;;41.03;14.05;;;;;12.20;97228.00;;;;8364782;28;20221;-75
2022/10/27 20:20:17;;;;;;;607.58;34.50;;;;;12.20;97235.00;;;;8364072;28;20226;-75
2022/10/27 20:24:54;;;;;;;39.28;13.25;;;;;12.10;97233.00;;;;8363948;28;20219;-74
2022/10/27 20:28:57;;;;;;;42.15;14.07;;;;;12.00;97234.00;;;;8363614;28;20224;-73
2022/10/27 20:33:02;;;;;;;42.95;12.48;;;;;12.00;97241.00;;;;8364194;28;20258;-73
2022/10/27 20:37:05;;;;;;;38.38;14.20;;;;;12.00;97246.00;;;;8363400;28;20224;-74
2022/10/27 20:41:10;;;;;;;39.45;14.20;;;;;12.00;97252.00;;;;8364198;28;20235;-74
2022/10/27 20:45:13;;;;;;;54.38;15.25;;;;;11.90;97245.00;;;;8363754;28;20545;-73
2022/10/27 20:49:51;;;;;;;38.75;14.55;;;;;11.90;97238.00;;;;8363514;28;20227;-73
2022/10/27 20:53:54;;;;;;;135.73;19.52;;;;;11.90;97240.00;;;;8364034;28;20262;-73
2022/10/27 20:58:31;;;;;;;42.20;16.20;;;;;11.90;97238.00;;;;8363235;28;20240;-73
2022/10/27 21:02:34;;;;;;;665.40;43.63;;;;;12.00;97233.00;;;;8362660;28;20570;-73
2022/10/27 21:11:37;;;;;;;70.13;18.77;;;;;12.00;97224.00;;;;8362792;28;20216;-73